sensor_id;sensor_type;location;lat;lon;timestamp;P1;durP1;ratioP1;P2;durP2;ratioP2
15110;SDS011;7656;51.954;7.998;2023-03-23T00:03:20;3.40;;;2.70;;
15110;SDS011;7656;51.954;7.998;2023-03-23T00:07:41;5.07;;;2.67;;
15110;SDS011;7656;51.954;7.998;2023-03-23T00:12:05;7.10;;;2.80;;
15110;SDS011;7656;51.954;7.998;2023-03-23T00:16:28;3.00;;;2.30;;
15110;SDS011;7656;51.954;7.998;2023-03-23T00:20:53;3.77;;;2.90;;
15110;SDS011;7656;51.954;7.998;2023-03-23T00:25:16;3.50;;;3.17;;
15110;SDS011;7656;51.954;7.998;2023-03-23T00:29:38;4.60;;;2.73;;
15110;SDS011;7656;51.954;7.998;2023-03-23T00:34:02;3.73;;;2.73;;
15110;SDS011;7656;51.954;7.998;2023-03-23T00:38:25;3.13;;;2.20;;
15110;SDS011;7656;51.954;7.998;2023-03-23T00:42:47;4.97;;;3.20;;
15110;SDS011;7656;51.954;7.998;2023-03-23T00:47:09;3.93;;;2.30;;
15110;SDS011;7656;51.954;7.998;2023-03-23T00:51:32;3.87;;;2.63;;
15110;SDS011;7656;51.954;7.998;2023-03-23T00:55:53;4.10;;;2.53;;
15110;SDS011;7656;51.954;7.998;2023-03-23T01:00:14;3.07;;;2.20;;
15110;SDS011;7656;51.954;7.998;2023-03-23T01:04:38;4.33;;;2.30;;
15110;SDS011;7656;51.954;7.998;2023-03-23T01:08:59;2.23;;;2.03;;
15110;SDS011;7656;51.954;7.998;2023-03-23T01:13:22;2.67;;;2.17;;
15110;SDS011;7656;51.954;7.998;2023-03-23T01:17:44;2.47;;;2.27;;
15110;SDS011;7656;51.954;7.998;2023-03-23T01:22:05;5.10;;;2.00;;
15110;SDS011;7656;51.954;7.998;2023-03-23T01:26:26;2.30;;;2.10;;
15110;SDS011;7656;51.954;7.998;2023-03-23T01:30:48;2.27;;;1.97;;
15110;SDS011;7656;51.954;7.998;2023-03-23T01:35:11;2.77;;;2.00;;
15110;SDS011;7656;51.954;7.998;2023-03-23T01:39:35;4.23;;;1.93;;
15110;SDS011;7656;51.954;7.998;2023-03-23T01:48:34;2.53;;;2.00;;
15110;SDS011;7656;51.954;7.998;2023-03-23T01:52:57;4.53;;;1.87;;
15110;SDS011;7656;51.954;7.998;2023-03-23T01:57:20;2.27;;;1.80;;
15110;SDS011;7656;51.954;7.998;2023-03-23T02:01:44;2.00;;;1.80;;
15110;SDS011;7656;51.954;7.998;2023-03-23T02:06:07;3.10;;;1.77;;
15110;SDS011;7656;51.954;7.998;2023-03-23T02:10:34;2.10;;;1.90;;
15110;SDS011;7656;51.954;7.998;2023-03-23T02:14:57;2.63;;;2.00;;
15110;SDS011;7656;51.954;7.998;2023-03-23T02:38:24;2.30;;;1.90;;
15110;SDS011;7656;51.954;7.998;2023-03-23T02:43:06;2.83;;;2.03;;
15110;SDS011;7656;51.954;7.998;2023-03-23T02:47:33;1.77;;;1.67;;
15110;SDS011;7656;51.954;7.998;2023-03-23T02:51:58;2.43;;;1.73;;
15110;SDS011;7656;51.954;7.998;2023-03-23T02:56:23;2.53;;;1.60;;
15110;SDS011;7656;51.954;7.998;2023-03-23T03:00:49;1.77;;;1.50;;
15110;SDS011;7656;51.954;7.998;2023-03-23T03:09:52;1.60;;;1.50;;
15110;SDS011;7656;51.954;7.998;2023-03-23T03:14:21;1.93;;;1.73;;
15110;SDS011;7656;51.954;7.998;2023-03-23T03:23:34;2.30;;;1.67;;
15110;SDS011;7656;51.954;7.998;2023-03-23T03:28:00;3.33;;;1.53;;
15110;SDS011;7656;51.954;7.998;2023-03-23T03:32:36;1.40;;;1.30;;
15110;SDS011;7656;51.954;7.998;2023-03-23T03:37:04;1.30;;;1.20;;
15110;SDS011;7656;51.954;7.998;2023-03-23T03:41:27;1.83;;;1.40;;
15110;SDS011;7656;51.954;7.998;2023-03-23T03:45:48;2.37;;;1.27;;
15110;SDS011;7656;51.954;7.998;2023-03-23T03:50:10;2.97;;;1.50;;
15110;SDS011;7656;51.954;7.998;2023-03-23T03:54:32;3.67;;;1.57;;
15110;SDS011;7656;51.954;7.998;2023-03-23T03:58:53;1.53;;;1.43;;
15110;SDS011;7656;51.954;7.998;2023-03-23T04:03:37;1.60;;;1.50;;
15110;SDS011;7656;51.954;7.998;2023-03-23T04:08:04;2.67;;;1.80;;
15110;SDS011;7656;51.954;7.998;2023-03-23T04:12:26;1.60;;;1.50;;
15110;SDS011;7656;51.954;7.998;2023-03-23T04:16:49;1.50;;;1.40;;
15110;SDS011;7656;51.954;7.998;2023-03-23T04:21:17;1.50;;;1.40;;
15110;SDS011;7656;51.954;7.998;2023-03-23T04:25:42;2.30;;;1.80;;
15110;SDS011;7656;51.954;7.998;2023-03-23T04:30:04;1.60;;;1.50;;
15110;SDS011;7656;51.954;7.998;2023-03-23T04:34:40;1.83;;;1.40;;
15110;SDS011;7656;51.954;7.998;2023-03-23T04:39:02;1.40;;;1.30;;
15110;SDS011;7656;51.954;7.998;2023-03-23T04:43:24;2.07;;;1.90;;
15110;SDS011;7656;51.954;7.998;2023-03-23T04:47:52;2.63;;;1.73;;
15110;SDS011;7656;51.954;7.998;2023-03-23T04:52:19;1.30;;;1.23;;
15110;SDS011;7656;51.954;7.998;2023-03-23T04:56:45;1.60;;;1.50;;
15110;SDS011;7656;51.954;7.998;2023-03-23T05:01:09;1.53;;;1.47;;
15110;SDS011;7656;51.954;7.998;2023-03-23T05:05:39;3.93;;;1.67;;
15110;SDS011;7656;51.954;7.998;2023-03-23T05:10:03;2.70;;;1.90;;
15110;SDS011;7656;51.954;7.998;2023-03-23T05:14:26;2.40;;;1.50;;
15110;SDS011;7656;51.954;7.998;2023-03-23T05:18:57;1.70;;;1.53;;
15110;SDS011;7656;51.954;7.998;2023-03-23T05:23:20;2.40;;;1.50;;
15110;SDS011;7656;51.954;7.998;2023-03-23T05:27:46;3.57;;;1.57;;
15110;SDS011;7656;51.954;7.998;2023-03-23T05:32:41;1.40;;;1.30;;
15110;SDS011;7656;51.954;7.998;2023-03-23T05:37:34;1.63;;;1.50;;
15110;SDS011;7656;51.954;7.998;2023-03-23T05:42:02;1.70;;;1.60;;
15110;SDS011;7656;51.954;7.998;2023-03-23T05:46:35;2.77;;;1.60;;
15110;SDS011;7656;51.954;7.998;2023-03-23T05:50:57;1.60;;;1.30;;
15110;SDS011;7656;51.954;7.998;2023-03-23T05:55:19;2.80;;;1.60;;
15110;SDS011;7656;51.954;7.998;2023-03-23T05:59:49;2.50;;;1.47;;
15110;SDS011;7656;51.954;7.998;2023-03-23T06:04:15;3.10;;;1.53;;
15110;SDS011;7656;51.954;7.998;2023-03-23T06:08:51;2.80;;;1.60;;
15110;SDS011;7656;51.954;7.998;2023-03-23T06:13:22;2.20;;;1.60;;
15110;SDS011;7656;51.954;7.998;2023-03-23T06:17:47;1.67;;;1.50;;
15110;SDS011;7656;51.954;7.998;2023-03-23T06:22:08;1.87;;;1.77;;
15110;SDS011;7656;51.954;7.998;2023-03-23T06:26:50;1.50;;;1.40;;
15110;SDS011;7656;51.954;7.998;2023-03-23T06:31:15;3.30;;;1.43;;
15110;SDS011;7656;51.954;7.998;2023-03-23T06:35:38;2.10;;;1.60;;
15110;SDS011;7656;51.954;7.998;2023-03-23T06:40:08;2.33;;;2.10;;
15110;SDS011;7656;51.954;7.998;2023-03-23T06:44:34;1.90;;;1.47;;
15110;SDS011;7656;51.954;7.998;2023-03-23T06:48:56;1.80;;;1.40;;
15110;SDS011;7656;51.954;7.998;2023-03-23T06:53:27;1.57;;;1.30;;
15110;SDS011;7656;51.954;7.998;2023-03-23T06:57:51;1.73;;;1.27;;
15110;SDS011;7656;51.954;7.998;2023-03-23T07:02:13;2.60;;;1.23;;
15110;SDS011;7656;51.954;7.998;2023-03-23T07:06:36;1.50;;;1.40;;
15110;SDS011;7656;51.954;7.998;2023-03-23T07:10:59;3.13;;;1.80;;
15110;SDS011;7656;51.954;7.998;2023-03-23T07:15:23;2.93;;;1.53;;
15110;SDS011;7656;51.954;7.998;2023-03-23T07:19:46;1.77;;;1.67;;
15110;SDS011;7656;51.954;7.998;2023-03-23T07:24:10;4.20;;;1.97;;
15110;SDS011;7656;51.954;7.998;2023-03-23T07:28:47;3.63;;;1.57;;
15110;SDS011;7656;51.954;7.998;2023-03-23T07:33:16;1.70;;;1.60;;
15110;SDS011;7656;51.954;7.998;2023-03-23T07:37:37;3.23;;;1.70;;
15110;SDS011;7656;51.954;7.998;2023-03-23T07:41:59;3.40;;;1.70;;
15110;SDS011;7656;51.954;7.998;2023-03-23T07:46:35;2.77;;;1.57;;
15110;SDS011;7656;51.954;7.998;2023-03-23T07:51:08;1.73;;;1.60;;
15110;SDS011;7656;51.954;7.998;2023-03-23T07:55:30;1.60;;;1.50;;
15110;SDS011;7656;51.954;7.998;2023-03-23T08:00:15;2.47;;;1.83;;
15110;SDS011;7656;51.954;7.998;2023-03-23T08:04:45;2.43;;;1.60;;
15110;SDS011;7656;51.954;7.998;2023-03-23T08:09:18;4.20;;;1.90;;
15110;SDS011;7656;51.954;7.998;2023-03-23T08:13:57;2.13;;;1.87;;
15110;SDS011;7656;51.954;7.998;2023-03-23T08:18:45;2.80;;;2.17;;
15110;SDS011;7656;51.954;7.998;2023-03-23T08:23:18;2.90;;;1.80;;
15110;SDS011;7656;51.954;7.998;2023-03-23T08:28:04;3.50;;;1.70;;
15110;SDS011;7656;51.954;7.998;2023-03-23T08:32:35;2.17;;;1.97;;
15110;SDS011;7656;51.954;7.998;2023-03-23T08:37:23;2.40;;;1.97;;
15110;SDS011;7656;51.954;7.998;2023-03-23T08:41:51;3.80;;;1.80;;
15110;SDS011;7656;51.954;7.998;2023-03-23T08:46:35;4.97;;;2.00;;
15110;SDS011;7656;51.954;7.998;2023-03-23T08:51:15;2.83;;;1.80;;
15110;SDS011;7656;51.954;7.998;2023-03-23T08:56:06;3.70;;;1.83;;
15110;SDS011;7656;51.954;7.998;2023-03-23T09:00:48;2.20;;;1.60;;
15110;SDS011;7656;51.954;7.998;2023-03-23T09:05:25;3.43;;;2.03;;
15110;SDS011;7656;51.954;7.998;2023-03-23T09:10:08;3.27;;;1.53;;
15110;SDS011;7656;51.954;7.998;2023-03-23T09:14:30;4.77;;;1.67;;
15110;SDS011;7656;51.954;7.998;2023-03-23T09:18:51;2.17;;;1.63;;
15110;SDS011;7656;51.954;7.998;2023-03-23T09:23:12;1.97;;;1.50;;
15110;SDS011;7656;51.954;7.998;2023-03-23T09:27:34;4.33;;;2.13;;
15110;SDS011;7656;51.954;7.998;2023-03-23T09:31:57;3.80;;;1.83;;
15110;SDS011;7656;51.954;7.998;2023-03-23T09:36:18;2.07;;;1.50;;
15110;SDS011;7656;51.954;7.998;2023-03-23T09:50:02;3.97;;;1.40;;
15110;SDS011;7656;51.954;7.998;2023-03-23T09:54:38;4.27;;;1.97;;
15110;SDS011;7656;51.954;7.998;2023-03-23T09:59:14;1.80;;;1.37;;
15110;SDS011;7656;51.954;7.998;2023-03-23T10:04:05;5.83;;;1.80;;
15110;SDS011;7656;51.954;7.998;2023-03-23T10:08:54;3.17;;;1.67;;
15110;SDS011;7656;51.954;7.998;2023-03-23T10:18:15;1.33;;;0.80;;
15110;SDS011;7656;51.954;7.998;2023-03-23T10:23:08;1.90;;;0.50;;
15110;SDS011;7656;51.954;7.998;2023-03-23T10:37:22;1.07;;;0.50;;
15110;SDS011;7656;51.954;7.998;2023-03-23T10:41:48;1.20;;;0.90;;
15110;SDS011;7656;51.954;7.998;2023-03-23T10:46:24;0.40;;;0.40;;
15110;SDS011;7656;51.954;7.998;2023-03-23T10:51:11;0.53;;;0.53;;
15110;SDS011;7656;51.954;7.998;2023-03-23T10:55:35;0.43;;;0.40;;
15110;SDS011;7656;51.954;7.998;2023-03-23T11:00:02;1.03;;;0.87;;
15110;SDS011;7656;51.954;7.998;2023-03-23T11:05:03;0.63;;;0.50;;
15110;SDS011;7656;51.954;7.998;2023-03-23T11:09:37;0.53;;;0.53;;
15110;SDS011;7656;51.954;7.998;2023-03-23T11:14:02;0.70;;;0.63;;
15110;SDS011;7656;51.954;7.998;2023-03-23T11:18:36;1.97;;;0.90;;
15110;SDS011;7656;51.954;7.998;2023-03-23T11:23:01;1.13;;;0.80;;
15110;SDS011;7656;51.954;7.998;2023-03-23T11:27:31;0.77;;;0.77;;
15110;SDS011;7656;51.954;7.998;2023-03-23T11:36:21;0.80;;;0.80;;
15110;SDS011;7656;51.954;7.998;2023-03-23T11:40:52;1.23;;;0.70;;
15110;SDS011;7656;51.954;7.998;2023-03-23T11:45:17;0.70;;;0.70;;
15110;SDS011;7656;51.954;7.998;2023-03-23T11:49:45;3.27;;;1.13;;
15110;SDS011;7656;51.954;7.998;2023-03-23T11:54:32;1.73;;;1.00;;
15110;SDS011;7656;51.954;7.998;2023-03-23T11:58:58;2.63;;;0.90;;
15110;SDS011;7656;51.954;7.998;2023-03-23T12:08:24;1.43;;;1.33;;
15110;SDS011;7656;51.954;7.998;2023-03-23T12:13:12;2.27;;;0.97;;
15110;SDS011;7656;51.954;7.998;2023-03-23T12:17:57;3.70;;;1.23;;
15110;SDS011;7656;51.954;7.998;2023-03-23T12:22:41;0.73;;;0.73;;
15110;SDS011;7656;51.954;7.998;2023-03-23T12:27:32;1.00;;;0.90;;
15110;SDS011;7656;51.954;7.998;2023-03-23T12:32:20;1.20;;;0.87;;
15110;SDS011;7656;51.954;7.998;2023-03-23T12:36:57;2.37;;;1.10;;
15110;SDS011;7656;51.954;7.998;2023-03-23T12:47:11;1.07;;;0.97;;
15110;SDS011;7656;51.954;7.998;2023-03-23T12:52:04;2.20;;;1.00;;
15110;SDS011;7656;51.954;7.998;2023-03-23T12:56:57;1.00;;;0.87;;
15110;SDS011;7656;51.954;7.998;2023-03-23T13:01:32;3.10;;;1.37;;
15110;SDS011;7656;51.954;7.998;2023-03-23T13:06:19;1.00;;;1.00;;
15110;SDS011;7656;51.954;7.998;2023-03-23T13:11:03;1.10;;;1.00;;
15110;SDS011;7656;51.954;7.998;2023-03-23T13:15:38;1.23;;;1.13;;
15110;SDS011;7656;51.954;7.998;2023-03-23T13:20:35;1.87;;;1.00;;
15110;SDS011;7656;51.954;7.998;2023-03-23T13:25:25;2.97;;;1.20;;
15110;SDS011;7656;51.954;7.998;2023-03-23T13:30:00;0.90;;;0.90;;
15110;SDS011;7656;51.954;7.998;2023-03-23T13:34:24;1.60;;;1.50;;
15110;SDS011;7656;51.954;7.998;2023-03-23T13:38:49;1.60;;;1.00;;
15110;SDS011;7656;51.954;7.998;2023-03-23T13:43:11;1.47;;;1.40;;
15110;SDS011;7656;51.954;7.998;2023-03-23T13:47:39;1.87;;;1.77;;
15110;SDS011;7656;51.954;7.998;2023-03-23T13:52:17;3.00;;;2.50;;
15110;SDS011;7656;51.954;7.998;2023-03-23T13:56:59;3.90;;;2.90;;
15110;SDS011;7656;51.954;7.998;2023-03-23T14:01:34;2.73;;;2.53;;
15110;SDS011;7656;51.954;7.998;2023-03-23T14:06:12;3.80;;;3.13;;
15110;SDS011;7656;51.954;7.998;2023-03-23T14:11:26;4.07;;;3.53;;
15110;SDS011;7656;51.954;7.998;2023-03-23T14:15:56;3.60;;;3.17;;
15110;SDS011;7656;51.954;7.998;2023-03-23T14:20:25;3.73;;;3.20;;
15110;SDS011;7656;51.954;7.998;2023-03-23T14:25:13;3.63;;;3.30;;
15110;SDS011;7656;51.954;7.998;2023-03-23T14:29:37;3.53;;;3.23;;
15110;SDS011;7656;51.954;7.998;2023-03-23T14:34:01;3.87;;;3.57;;
15110;SDS011;7656;51.954;7.998;2023-03-23T14:38:26;4.10;;;3.63;;
15110;SDS011;7656;51.954;7.998;2023-03-23T14:42:51;6.47;;;4.27;;
15110;SDS011;7656;51.954;7.998;2023-03-23T14:47:19;3.93;;;3.63;;
15110;SDS011;7656;51.954;7.998;2023-03-23T14:51:51;4.37;;;3.97;;
15110;SDS011;7656;51.954;7.998;2023-03-23T14:56:16;3.73;;;3.40;;
15110;SDS011;7656;51.954;7.998;2023-03-23T15:00:47;3.77;;;3.40;;
15110;SDS011;7656;51.954;7.998;2023-03-23T15:05:14;5.27;;;2.43;;
15110;SDS011;7656;51.954;7.998;2023-03-23T15:10:01;3.37;;;2.37;;
15110;SDS011;7656;51.954;7.998;2023-03-23T15:14:44;2.50;;;2.27;;
15110;SDS011;7656;51.954;7.998;2023-03-23T15:19:15;4.37;;;2.80;;
15110;SDS011;7656;51.954;7.998;2023-03-23T15:23:48;4.57;;;3.30;;
15110;SDS011;7656;51.954;7.998;2023-03-23T15:28:20;5.27;;;2.70;;
15110;SDS011;7656;51.954;7.998;2023-03-23T15:32:53;3.10;;;2.57;;
15110;SDS011;7656;51.954;7.998;2023-03-23T15:37:28;2.13;;;1.97;;
15110;SDS011;7656;51.954;7.998;2023-03-23T15:41:52;3.23;;;2.57;;
15110;SDS011;7656;51.954;7.998;2023-03-23T15:50:35;3.73;;;2.67;;
15110;SDS011;7656;51.954;7.998;2023-03-23T15:54:56;3.10;;;1.93;;
15110;SDS011;7656;51.954;7.998;2023-03-23T15:59:17;5.40;;;2.17;;
15110;SDS011;7656;51.954;7.998;2023-03-23T16:03:40;3.23;;;2.27;;
15110;SDS011;7656;51.954;7.998;2023-03-23T16:08:08;6.23;;;2.80;;
15110;SDS011;7656;51.954;7.998;2023-03-23T16:12:31;6.30;;;2.33;;
15110;SDS011;7656;51.954;7.998;2023-03-23T16:16:52;3.47;;;2.20;;
15110;SDS011;7656;51.954;7.998;2023-03-23T16:21:13;2.63;;;2.10;;
15110;SDS011;7656;51.954;7.998;2023-03-23T16:25:34;4.60;;;2.80;;
15110;SDS011;7656;51.954;7.998;2023-03-23T16:29:55;3.10;;;2.20;;
15110;SDS011;7656;51.954;7.998;2023-03-23T16:34:18;2.33;;;2.17;;
15110;SDS011;7656;51.954;7.998;2023-03-23T16:38:39;2.60;;;2.10;;
15110;SDS011;7656;51.954;7.998;2023-03-23T16:43:01;2.57;;;2.37;;
15110;SDS011;7656;51.954;7.998;2023-03-23T16:47:23;4.10;;;2.63;;
15110;SDS011;7656;51.954;7.998;2023-03-23T16:51:44;2.57;;;2.33;;
15110;SDS011;7656;51.954;7.998;2023-03-23T16:56:07;4.27;;;2.50;;
15110;SDS011;7656;51.954;7.998;2023-03-23T17:00:28;3.97;;;2.67;;
15110;SDS011;7656;51.954;7.998;2023-03-23T17:04:53;4.90;;;2.90;;
15110;SDS011;7656;51.954;7.998;2023-03-23T17:09:14;3.83;;;2.70;;
15110;SDS011;7656;51.954;7.998;2023-03-23T17:13:35;2.80;;;2.33;;
15110;SDS011;7656;51.954;7.998;2023-03-23T17:17:56;2.83;;;2.20;;
15110;SDS011;7656;51.954;7.998;2023-03-23T17:22:17;2.67;;;2.30;;
15110;SDS011;7656;51.954;7.998;2023-03-23T17:26:38;2.60;;;2.40;;
15110;SDS011;7656;51.954;7.998;2023-03-23T17:30:59;2.50;;;2.30;;
15110;SDS011;7656;51.954;7.998;2023-03-23T17:35:21;2.50;;;2.30;;
15110;SDS011;7656;51.954;7.998;2023-03-23T17:39:42;2.87;;;2.43;;
15110;SDS011;7656;51.954;7.998;2023-03-23T17:44:03;4.67;;;2.63;;
15110;SDS011;7656;51.954;7.998;2023-03-23T17:48:24;3.27;;;2.03;;
15110;SDS011;7656;51.954;7.998;2023-03-23T17:52:46;3.13;;;2.40;;
15110;SDS011;7656;51.954;7.998;2023-03-23T17:57:09;2.50;;;2.07;;
15110;SDS011;7656;51.954;7.998;2023-03-23T18:01:30;5.03;;;1.90;;
15110;SDS011;7656;51.954;7.998;2023-03-23T18:05:56;4.70;;;2.40;;
15110;SDS011;7656;51.954;7.998;2023-03-23T18:10:22;3.43;;;1.90;;
15110;SDS011;7656;51.954;7.998;2023-03-23T18:14:43;4.93;;;1.73;;
15110;SDS011;7656;51.954;7.998;2023-03-23T18:19:05;3.33;;;2.27;;
15110;SDS011;7656;51.954;7.998;2023-03-23T18:23:27;2.70;;;2.50;;
15110;SDS011;7656;51.954;7.998;2023-03-23T18:27:48;2.57;;;1.93;;
15110;SDS011;7656;51.954;7.998;2023-03-23T18:32:10;3.10;;;2.30;;
15110;SDS011;7656;51.954;7.998;2023-03-23T18:36:31;4.00;;;2.27;;
15110;SDS011;7656;51.954;7.998;2023-03-23T18:40:53;3.13;;;2.40;;
15110;SDS011;7656;51.954;7.998;2023-03-23T18:45:15;4.23;;;2.60;;
15110;SDS011;7656;51.954;7.998;2023-03-23T18:49:36;5.53;;;2.80;;
15110;SDS011;7656;51.954;7.998;2023-03-23T18:53:57;7.03;;;3.47;;
15110;SDS011;7656;51.954;7.998;2023-03-23T18:58:18;5.87;;;2.90;;
15110;SDS011;7656;51.954;7.998;2023-03-23T19:02:40;5.70;;;3.03;;
15110;SDS011;7656;51.954;7.998;2023-03-23T19:07:01;4.80;;;3.40;;
15110;SDS011;7656;51.954;7.998;2023-03-23T19:11:23;4.97;;;3.77;;
15110;SDS011;7656;51.954;7.998;2023-03-23T19:15:46;8.03;;;4.13;;
15110;SDS011;7656;51.954;7.998;2023-03-23T19:20:07;3.43;;;2.50;;
15110;SDS011;7656;51.954;7.998;2023-03-23T19:24:29;2.87;;;2.20;;
15110;SDS011;7656;51.954;7.998;2023-03-23T19:28:50;5.17;;;2.47;;
15110;SDS011;7656;51.954;7.998;2023-03-23T19:33:12;6.03;;;2.67;;
15110;SDS011;7656;51.954;7.998;2023-03-23T19:37:33;4.30;;;2.10;;
15110;SDS011;7656;51.954;7.998;2023-03-23T19:41:55;3.03;;;2.10;;
15110;SDS011;7656;51.954;7.998;2023-03-23T19:46:16;2.70;;;2.10;;
15110;SDS011;7656;51.954;7.998;2023-03-23T19:50:37;4.20;;;2.20;;
15110;SDS011;7656;51.954;7.998;2023-03-23T19:54:59;3.20;;;2.07;;
15110;SDS011;7656;51.954;7.998;2023-03-23T19:59:20;3.03;;;2.20;;
15110;SDS011;7656;51.954;7.998;2023-03-23T20:03:41;4.10;;;2.60;;
15110;SDS011;7656;51.954;7.998;2023-03-23T20:08:03;5.27;;;3.03;;
15110;SDS011;7656;51.954;7.998;2023-03-23T20:12:24;3.93;;;2.50;;
15110;SDS011;7656;51.954;7.998;2023-03-23T20:16:45;3.27;;;2.20;;
15110;SDS011;7656;51.954;7.998;2023-03-23T20:21:08;2.77;;;2.50;;
15110;SDS011;7656;51.954;7.998;2023-03-23T20:25:31;3.20;;;2.33;;
15110;SDS011;7656;51.954;7.998;2023-03-23T20:29:53;4.93;;;2.03;;
15110;SDS011;7656;51.954;7.998;2023-03-23T20:34:15;3.23;;;1.90;;
15110;SDS011;7656;51.954;7.998;2023-03-23T20:38:48;3.27;;;2.27;;
15110;SDS011;7656;51.954;7.998;2023-03-23T20:43:09;3.80;;;2.00;;
15110;SDS011;7656;51.954;7.998;2023-03-23T20:47:33;4.80;;;2.43;;
15110;SDS011;7656;51.954;7.998;2023-03-23T20:51:54;4.30;;;1.90;;
15110;SDS011;7656;51.954;7.998;2023-03-23T20:56:15;3.47;;;1.67;;
15110;SDS011;7656;51.954;7.998;2023-03-23T21:00:38;4.33;;;1.63;;
15110;SDS011;7656;51.954;7.998;2023-03-23T21:05:00;2.67;;;1.93;;
15110;SDS011;7656;51.954;7.998;2023-03-23T21:09:23;2.93;;;1.73;;
15110;SDS011;7656;51.954;7.998;2023-03-23T21:13:45;2.33;;;1.97;;
15110;SDS011;7656;51.954;7.998;2023-03-23T21:18:07;2.87;;;1.90;;
15110;SDS011;7656;51.954;7.998;2023-03-23T21:22:28;3.60;;;1.63;;
15110;SDS011;7656;51.954;7.998;2023-03-23T21:26:49;2.30;;;1.60;;
15110;SDS011;7656;51.954;7.998;2023-03-23T21:31:11;2.17;;;1.43;;
15110;SDS011;7656;51.954;7.998;2023-03-23T21:35:34;4.57;;;1.87;;
15110;SDS011;7656;51.954;7.998;2023-03-23T21:40:00;4.23;;;1.60;;
15110;SDS011;7656;51.954;7.998;2023-03-23T21:44:22;1.53;;;1.30;;
15110;SDS011;7656;51.954;7.998;2023-03-23T21:48:47;4.97;;;2.33;;
15110;SDS011;7656;51.954;7.998;2023-03-23T21:53:12;1.73;;;1.53;;
15110;SDS011;7656;51.954;7.998;2023-03-23T21:57:38;2.27;;;1.40;;
15110;SDS011;7656;51.954;7.998;2023-03-23T22:02:00;3.77;;;1.63;;
15110;SDS011;7656;51.954;7.998;2023-03-23T22:06:22;3.30;;;1.67;;
15110;SDS011;7656;51.954;7.998;2023-03-23T22:10:46;4.17;;;1.77;;
15110;SDS011;7656;51.954;7.998;2023-03-23T22:15:08;3.03;;;2.03;;
15110;SDS011;7656;51.954;7.998;2023-03-23T22:19:34;3.47;;;1.70;;
15110;SDS011;7656;51.954;7.998;2023-03-23T22:23:56;2.37;;;1.47;;
15110;SDS011;7656;51.954;7.998;2023-03-23T22:28:20;2.30;;;1.53;;
15110;SDS011;7656;51.954;7.998;2023-03-23T22:32:42;2.60;;;1.70;;
15110;SDS011;7656;51.954;7.998;2023-03-23T22:37:03;4.10;;;1.90;;
15110;SDS011;7656;51.954;7.998;2023-03-23T22:41:26;2.43;;;1.70;;
15110;SDS011;7656;51.954;7.998;2023-03-23T22:45:55;3.97;;;1.90;;
15110;SDS011;7656;51.954;7.998;2023-03-23T22:50:16;2.43;;;1.43;;
15110;SDS011;7656;51.954;7.998;2023-03-23T22:54:38;6.30;;;1.80;;
15110;SDS011;7656;51.954;7.998;2023-03-23T22:58:59;4.47;;;1.83;;
15110;SDS011;7656;51.954;7.998;2023-03-23T23:03:21;2.93;;;1.23;;
15110;SDS011;7656;51.954;7.998;2023-03-23T23:07:43;4.93;;;1.67;;
15110;SDS011;7656;51.954;7.998;2023-03-23T23:12:04;2.10;;;1.47;;
15110;SDS011;7656;51.954;7.998;2023-03-23T23:16:26;2.57;;;1.43;;
15110;SDS011;7656;51.954;7.998;2023-03-23T23:20:51;2.27;;;1.20;;
15110;SDS011;7656;51.954;7.998;2023-03-23T23:25:18;4.47;;;1.97;;
15110;SDS011;7656;51.954;7.998;2023-03-23T23:29:39;8.40;;;1.80;;
15110;SDS011;7656;51.954;7.998;2023-03-23T23:34:01;1.53;;;1.40;;
15110;SDS011;7656;51.954;7.998;2023-03-23T23:38:23;1.67;;;1.50;;
15110;SDS011;7656;51.954;7.998;2023-03-23T23:42:45;3.10;;;1.30;;
15110;SDS011;7656;51.954;7.998;2023-03-23T23:47:09;3.17;;;1.60;;
15110;SDS011;7656;51.954;7.998;2023-03-23T23:51:31;3.17;;;1.77;;
15110;SDS011;7656;51.954;7.998;2023-03-23T23:55:53;1.70;;;1.33;;
